Burns Pinion Ridge Reserve, California Weather observations

Data are for 10 minute period ending at time listed.
 Day   Time   Solar   Ave.   Ave.  Ave.  Vector  Max.   Baro.   Total    
  of    of     Rad.   Air    Rel.  Wind   Wind   Wind  Press.  Precip.   
Year   Day            Temp.  Hum.  Speed  Dir.   Gust                    
2014   (PST)  Kw/m2    F      %     mph   deg.    mph    mb.     in.     
-------------------------------------------------------------------------
 303    3:10   0.00   48.8    43    0.1   212     0.8   877.7    0.00 
 303    3:20   0.00   48.4    43    0.1   300     1.1   877.8    0.00 
 303    3:30   0.00   48.6    42    0.4   279     1.5   877.7    0.00 
 303    3:40   0.00   48.4    42    0.0     0     0.0   877.7    0.00 
 303    3:50   0.00   48.1    42    0.0     0     0.0   877.7    0.00 
 303    4:00   0.00   48.3    41    0.0     0     0.0   877.8    0.00 
 303    4:10   0.00   47.9    42    0.1   233     0.9   877.8    0.00 
 303    4:20   0.00   47.5    42    0.0   225     0.7   877.8    0.00 
 303    4:30   0.00   47.1    42    0.0     0     0.0   877.9    0.00 
 303    4:40   0.00   47.7    41    0.7   188     3.1   877.9    0.00 
 303    4:50   0.00   48.7    39    0.0     0     0.0   878.0    0.00 
 303    5:00   0.00   47.4    41    0.0     0     0.0   878.0    0.00 
 303    5:10   0.00   47.0    41    0.0     0     0.0   878.0    0.00 
 303    5:20   0.00   47.2    40    0.0     0     0.0   878.1    0.00 
 303    5:30   0.00   47.5    40    0.0    33     0.7   878.1    0.00 
 303    5:40   0.00   46.7    40    0.1    10     0.9   878.2    0.00 
 303    5:50   0.00   45.9    41    0.3   354     1.3   878.2    0.00 
 303    6:00   0.00   45.7    42    0.5   350     1.6   878.2    0.00 
 303    6:10   0.00   46.6    40    0.0     0     0.0   878.2    0.00 
 303    6:20   0.01   46.4    40    0.5   190     2.6   878.2    0.00 
 303    6:30   0.02   46.9    40    3.2   188     4.2   878.2    0.00 
 303    6:40   0.04   50.5    36    2.5   194     3.9   878.2    0.00 
 303    6:50   0.07   53.1    32    2.2   223     3.9   878.4    0.00 
 303    7:00   0.08   56.3    29    3.0   198     4.6   878.5    0.00 
 303    7:10   0.07   61.3    24    4.0   180     6.4   878.5    0.00 
 303    7:20   0.14   63.1    22    3.8   179     6.1   878.5    0.00 
 303    7:30   0.25   68.3    18    4.2   168     6.6   878.5    0.00 
 303    7:40   0.25   69.4    18    4.7   170     7.1   878.4    0.00 
 303    7:50   0.24   69.9    17    4.4   166     7.2   878.3    0.00 
 303    8:00   0.24   68.8    18    3.6   169     7.9   878.4    0.00 
 303    8:10   0.41   71.0    17    2.8   163     5.8   878.5    0.00 
 303    8:20   0.33   73.3    15    3.2   173     6.9   878.6    0.00 
 303    8:30   0.26   70.2    17    2.8   182     6.1   878.6    0.00 
 303    8:40   0.42   70.4    17    2.6   189     7.0   878.7    0.00 
 303    8:50   0.34   71.6    16    2.9   170     6.8   878.7    0.00 
 303    9:00   0.44   71.5    17    3.9   168     8.8   878.8    0.00 
 303    9:10   0.45   71.6    17    5.0   197    11.6   878.7    0.00 
 303    9:20   0.36   70.8    18    3.7   187     7.6   878.7    0.00 
 303    9:30   0.56   71.6    17    4.2   202    10.6   878.7    0.00 
 303    9:40   0.31   70.3    18    5.4   190    11.8   878.7    0.00 
 303    9:50   0.70   70.7    18    4.9   197    13.8   878.7    0.00 
 303   10:00   0.63   72.0    17    5.9   189    11.4   878.6    0.00 
 303   10:10   0.83   74.2    16    4.8   159    12.9   878.6    0.00 
 303   10:20   0.71   73.8    16    6.3   169    15.4   878.5    0.00 
 303   10:30   0.75   74.6    16    5.1   177    13.7   878.4    0.00 
 303   10:40   0.71   74.4    16    6.8   167    11.2   878.4    0.00 
 303   10:50   0.68   73.6    17    6.4   159    18.0   878.4    0.00 
 303   11:00   0.83   75.7    16    6.8   149    14.3   878.4    0.00 
 303   11:10   0.48   74.2    17    6.9   161    15.9   878.3    0.00 
 303   11:20   0.68   73.0    18    7.5   162    17.0   878.2    0.00 
 303   11:30   0.72   74.9    17    6.2   161    18.7   877.9    0.00 
 303   11:40   0.32   73.1    18    6.7   157    12.1   877.9    0.00 
 303   11:50   0.62   72.2    19    6.1   156    15.4   877.9    0.00 
 303   12:00   0.81   74.3    18    8.8   148    16.1   877.7    0.00 
 303   12:10   0.33   72.7    18    8.4   146    17.7   877.6    0.00 
 303   12:20   0.34   70.7    20    7.9   148    13.4   877.5    0.00 
 303   12:30   0.83   72.7    18    8.3   144    15.1   877.3    0.00 
 303   12:40   0.57   73.1    18    9.6   150    17.0   877.3    0.00 
 303   12:50   0.24   71.0    19    9.2   145    16.2   877.2    0.00 
 303   13:00   0.71   71.5    19    8.7   154    17.5   877.0    0.00 
 303   13:10   0.73   73.0    18   10.5   142    16.3   876.9    0.00 
 303   13:20   0.65   73.4    18    5.7   184    14.4   876.9    0.00 
 303   13:30   0.61   73.5    19    8.0   202    16.6   876.8    0.00 
 303   13:40   0.59   73.1    19    7.7   193    19.1   876.6    0.00 
 303   13:50   0.56   74.0    18    7.2   152    19.9   876.6    0.00 
 303   14:00   0.54   73.2    17    8.6   147    14.9   876.6    0.00 
 303   14:10   0.54   73.1    16    8.4   149    15.6   876.5    0.00 
 303   14:20   0.54   73.3    16    9.2   144    15.6   876.5    0.00 
 303   14:30   0.47   73.3    16    8.4   143    14.5   876.5    0.00 
 303   14:40   0.46   73.4    16    7.7   153    15.3   876.4    0.00 
 303   14:50   0.41   73.6    17    6.4   212    13.9   876.4    0.00 
 303   15:00   0.34   72.5    18    5.9   205    13.3   876.3    0.00 
 303   15:10   0.18   72.3    18    5.6   190    11.2   876.3    0.00 
 303   15:20   0.10   69.6    21    6.1   212    14.5   876.2    0.00 
 303   15:30   0.36   70.7    21    5.6   206    12.0   876.1    0.00 
 303   15:40   0.34   72.0    20    6.1   196    13.8   876.1    0.00 
 303   15:50   0.12   71.9    20    4.9   175    12.9   876.0    0.00 
 303   16:00   0.13   69.5    23    6.4   206    13.3   876.0    0.00 
 303   16:10   0.08   69.9    23    4.8   196    11.3   875.9    0.00 
 303   16:20   0.07   68.1    24    5.7   195    12.7   875.8    0.00 
 303   16:30   0.04   67.4    25    6.4   207    12.3   875.8    0.00 
 303   16:40   0.01   66.9    26    6.2   206    11.5   875.7    0.00 
 303   16:50   0.01   66.4    27    5.3   201    10.7   875.6    0.00 
 303   17:00   0.00   66.1    27    6.6   216    10.8   875.6    0.00 
 303   17:10   0.00   65.8    28    8.0   213    13.2   875.6    0.00 
 303   17:20   0.00   65.7    29    7.7   209    14.1   875.7    0.00 
 303   17:30   0.00   65.4    30    8.8   215    14.5   875.7    0.00 
 303   17:40   0.00   65.3    30    9.2   213    15.4   875.7    0.00 
 303   17:50   0.00   65.2    30    8.9   214    15.4   875.8    0.00 
 303   18:00   0.00   65.2    30    9.8   216    17.7   875.8    0.00 
 303   18:10   0.00   65.1    30    6.9   208    13.7   875.7    0.00 
 303   18:20   0.00   64.8    30    6.3   211    11.8   875.6    0.00 
 303   18:30   0.00   64.6    30    5.7   192    13.4   875.5    0.00 
 303   18:40   0.00   64.5    30    6.1   212    13.3   875.6    0.00 
 303   18:50   0.00   64.6    30    6.1   212    13.8   875.6    0.00 
 303   19:00   0.00   64.2    31    3.6   195     8.6   875.5    0.00 
 303   19:10   0.00   64.2    31    5.5   200    14.5   875.5    0.00 
 303   19:20   0.00   64.4    31    9.9   213    18.6   875.8    0.00 
 303   19:30   0.00   64.1    31    5.8   219    11.2   875.9    0.00 
 303   19:40   0.00   63.6    31    5.6   216    11.5   875.9    0.00 
 303   19:50   0.00   63.7    31    6.4   218    11.4   875.9    0.00 
 303   20:00   0.00   63.4    31    3.5   177     6.6   875.8    0.00 
 303   20:10   0.00   62.7    32    4.7   214    10.4   875.8    0.00 
 303   20:20   0.00   63.1    32    4.5   208    10.9   875.8    0.00 
 303   20:30   0.00   62.6    32    3.6   179     6.7   875.6    0.00 
 303   20:40   0.00   61.9    33    3.4   164     7.5   875.4    0.00 
 303   20:50   0.00   62.0    33    2.3   192     6.1   875.5    0.00 
 303   21:00   0.00   62.2    32    2.7   194     6.2   875.5    0.00 
 303   21:10   0.00   62.3    32    3.4   190     7.3   875.5    0.00 
 303   21:20   0.00   62.5    32    4.2   168     9.1   875.4    0.00 
 303   21:30   0.00   62.5    32    4.4   164     9.0   875.3    0.00 
 303   21:40   0.00   62.3    32    3.7   180     7.5   875.4    0.00 
 303   21:50   0.00   62.5    32    2.6   202     5.9   875.5    0.00 
 303   22:00   0.00   62.7    32    4.7   218     8.8   875.6    0.00 
 303   22:10   0.00   62.5    32    4.1   223     8.9   875.6    0.00 
 303   22:20   0.00   62.6    32    4.9   219     8.5   875.6    0.00 
 303   22:30   0.00   62.6    32    4.4   212     8.4   875.4    0.00 
 303   22:40   0.00   61.9    33    2.3   201     6.3   875.3    0.00 
 303   22:50   0.00   61.4    34    2.4   204     5.9   875.3    0.00 
 303   23:00   0.00   61.0    34    1.5   205     4.1   875.3    0.00 
 303   23:10   0.00   60.0    35    1.6   149     3.9   875.2    0.00 
 303   23:20   0.00   58.5    37    0.8   140     2.3   875.1    0.00 
 303   23:30   0.00   56.3    40    1.6   145     3.2   875.1    0.00 
 303   23:40   0.00   54.4    42    1.9   145     4.1   875.0    0.00 
 303   23:50   0.00   53.8    44    2.5   153     3.6   874.9    0.00 
 304    0:00   0.00   54.9    43    2.7   154     4.4   874.8    0.00 
 304    0:10   0.00   57.2    39    2.8   151     4.2   874.9    0.00 
 304    0:20   0.00   57.7    38    2.6   149     4.4   874.9    0.00 
 304    0:30   0.00   56.3    40    2.9   142     4.7   874.9    0.00 
 304    0:40   0.00   56.0    41    2.1   134     4.2   874.8    0.00 
 304    0:50   0.00   54.3    43    2.2   125     4.3   874.8    0.00 
 304    1:00   0.00   53.8    44    2.4   106     4.3   874.7    0.00 
 304    1:10   0.00   53.3    44    2.3    98     3.8   874.6    0.00 
 304    1:20   0.00   52.2    46    0.6    89     2.7   874.6    0.00 
 304    1:30   0.00   51.1    47    0.5    57     2.6   874.6    0.00 
 304    1:40   0.00   49.5    50    0.9   320     1.8   874.7    0.00 
 304    1:50   0.00   49.0    51    0.9   350     1.5   874.7    0.00 
 304    2:00   0.00   48.7    52    0.1     4     0.9   874.6    0.00 
 304    2:10   0.00   48.3    52    0.0     0     0.0   874.5    0.00 
 304    2:20   0.00   48.1    52    0.0   134     1.5   874.5    0.00 
 304    2:30   0.00   48.3    52    1.4   136     1.8   874.4    0.00 
 304    2:40   0.00   48.9    51    1.1   134     1.8   874.4    0.00 
 304    2:50   0.00   47.8    52    1.5   120     2.6   874.2    0.00 
 304    3:00   0.00   48.6    51    1.2   122     2.8   874.1    0.00 

Return to Burns Pinion Ridge Reserve graphs page.


Western Regional Climate Center,wrcc@dri.edu